Time;durP1;ratioP1;P1;durP2;ratioP2;P2;SDS_P1;SDS_P2;PMS_P1;PMS_P2;Temp;Humidity;BMP_temperature;BMP_pressure;BME280_temperature;BME280_humidity;BME280_pressure;Samples;Min_cycle;Max_cycle;Signal;HPM_P1;HPM_P2
2021/04/16 00:00:35;;;;;;;1999.90;999.90;;;;;;;6.28;100.00;-18077.47;5057544;28;20192;-33
2021/04/16 00:03:22;;;;;;;1999.90;999.90;;;;;;;6.45;100.00;-18081.88;5058035;28;20267;-32
2021/04/16 00:06:09;;;;;;;1999.90;999.90;;;;;;;6.30;100.00;-18078.00;5057993;28;20607;-34
2021/04/16 00:08:55;;;;;;;1999.90;999.90;;;;;;;6.10;100.00;-18072.63;5057800;28;20199;-35
2021/04/16 00:11:41;;;;;;;1999.90;999.90;;;;;;;6.38;100.00;-18080.16;5057320;28;20204;-35
2021/04/16 00:14:26;;;;;;;1999.90;999.90;;;;;;;6.40;100.00;-18080.69;5057598;28;20216;-34
2021/04/16 00:17:13;;;;;;;1999.90;999.90;;;;;;;6.56;100.00;-18084.97;5057358;28;20609;-33
2021/04/16 00:19:59;;;;;;;1999.90;999.90;;;;;;;6.77;100.00;-18090.47;5057152;28;20224;-32
2021/04/16 00:22:45;;;;;;;1999.90;999.90;;;;;;;6.27;100.00;-18077.19;5057551;28;20326;-32
2021/04/16 00:25:32;;;;;;;1999.90;999.90;;;;;;;6.42;100.00;-18081.22;5057338;28;20676;-34
2021/04/16 00:28:19;;;;;;;1999.90;999.90;;;;;;;6.68;100.00;-18088.06;5056895;28;20487;-33
2021/04/16 00:31:10;;;;;;;1999.90;999.90;;;;;;;6.72;100.00;-18089.13;5056840;28;20423;-34
2021/04/16 00:33:57;;;;;;;1999.90;999.90;;;;;;;6.50;100.00;-18083.22;5057124;28;20263;-35
2021/04/16 00:36:47;;;;;;;1999.90;999.90;;;;;;;6.38;100.00;-18080.16;5056931;28;20204;-34
2021/04/16 00:39:33;;;;;;;1999.90;999.90;;;;;;;6.21;100.00;-18075.72;5056585;28;20235;-32
2021/04/16 00:42:21;;;;;;;1999.90;999.90;;;;;;;6.19;100.00;-18075.06;5057381;28;20664;-36
2021/04/16 00:45:09;;;;;;;1999.90;999.90;;;;;;;6.41;100.00;-18080.81;5056978;28;20204;-34
2021/04/16 00:47:58;;;;;;;1999.90;999.90;;;;;;;6.27;100.00;-18077.19;5056781;28;20330;-32
2021/04/16 00:50:50;;;;;;;1999.90;999.90;;;;;;;6.37;100.00;-18079.88;5057077;28;20196;-36
2021/04/16 00:53:36;;;;;;;1999.90;999.90;;;;;;;6.66;100.00;-18087.38;5057064;28;20610;-36
2021/04/16 00:56:23;;;;;;;1999.90;999.90;;;;;;;6.47;100.00;-18082.56;5056742;28;20212;-34
2021/04/16 00:59:09;;;;;;;1999.90;999.90;;;;;;;6.49;100.00;-18082.97;5056838;28;20283;-36
2021/04/16 01:01:55;;;;;;;1999.90;999.90;;;;;;;6.25;100.00;-18076.66;5056619;28;20259;-34
2021/04/16 01:04:42;;;;;;;1999.90;999.90;;;;;;;6.22;100.00;-18075.84;5056651;28;20204;-32
2021/04/16 01:07:31;;;;;;;1999.90;999.90;;;;;;;6.07;100.00;-18071.84;5056340;28;20204;-35
2021/04/16 01:10:17;;;;;;;1999.90;999.90;;;;;;;6.05;100.00;-18071.44;5056631;28;20196;-33
2021/04/16 01:13:04;;;;;;;1999.90;999.90;;;;;;;6.18;100.00;-18074.78;5055717;28;20403;-36
2021/04/16 01:15:55;;;;;;;1999.90;999.90;;;;;;;6.36;100.00;-18079.63;5055628;28;20651;-37
2021/04/16 01:18:43;;;;;;;1999.90;999.90;;;;;;;6.38;100.00;-18080.16;5056290;28;20220;-33
2021/04/16 01:21:37;;;;;;;1999.90;999.90;;;;;;;6.21;100.00;-18075.72;5056028;28;20208;-37
2021/04/16 01:24:28;;;;;;;1999.90;999.90;;;;;;;6.21;100.00;-18075.72;5056072;28;20212;-34
2021/04/16 01:27:14;;;;;;;1999.90;999.90;;;;;;;6.19;100.00;-18075.06;5056366;28;20267;-37
2021/04/16 01:30:09;;;;;;;1999.90;999.90;;;;;;;6.26;100.00;-18076.78;5056355;28;20200;-34
2021/04/16 01:32:57;;;;;;;1999.90;999.90;;;;;;;6.30;100.00;-18078.00;5056390;28;20204;-33
2021/04/16 01:35:43;;;;;;;1999.90;999.90;;;;;;;6.34;100.00;-18079.06;5055691;28;20220;-35
2021/04/16 01:38:29;;;;;;;1999.90;999.90;;;;;;;6.33;100.00;-18078.81;5055698;28;20259;-34
2021/04/16 01:41:17;;;;;;;1999.90;999.90;;;;;;;6.39;100.00;-18080.41;5058131;28;20351;-32
2021/04/16 01:44:06;;;;;;;1999.90;999.90;;;;;;;6.59;100.00;-18085.50;5059907;28;20294;-35
2021/04/16 01:46:57;;;;;;;1999.90;999.90;;;;;;;6.50;100.00;-18083.38;5060050;28;20196;-33
2021/04/16 01:49:46;;;;;;;1999.90;999.90;;;;;;;6.41;100.00;-18080.81;5059559;28;20254;-38
2021/04/16 01:52:34;;;;;;;1999.90;999.90;;;;;;;6.69;100.00;-18088.34;5059861;28;20204;-36
2021/04/16 01:55:21;;;;;;;1999.90;999.90;;;;;;;6.71;100.00;-18088.88;5060288;28;20343;-35
2021/04/16 01:58:08;;;;;;;1999.90;999.90;;;;;;;6.64;100.00;-18087.00;5059443;28;20204;-33
2021/04/16 02:00:54;;;;;;;1999.90;999.90;;;;;;;6.44;100.00;-18081.75;5059873;28;20487;-37
2021/04/16 02:03:40;;;;;;;1999.90;999.90;;;;;;;6.52;100.00;-18083.91;5059914;28;20500;-35
2021/04/16 02:06:33;;;;;;;1999.90;999.90;;;;;;;6.45;100.00;-18082.03;5060279;28;20258;-34
2021/04/16 02:09:21;;;;;;;1999.90;999.90;;;;;;;6.31;100.00;-18078.28;5059663;28;20196;-36
2021/04/16 02:12:09;;;;;;;1999.90;999.90;;;;;;;6.32;100.00;-18078.53;5059814;28;20239;-32
2021/04/16 02:14:56;;;;;;;1999.90;999.90;;;;;;;6.52;100.00;-18083.78;5059831;28;20201;-35
2021/04/16 02:17:42;;;;;;;1999.90;999.90;;;;;;;6.50;100.00;-18083.38;5059797;28;20196;-36
2021/04/16 02:20:29;;;;;;;1999.90;999.90;;;;;;;6.67;100.00;-18087.78;5059894;28;20232;-33
2021/04/16 02:23:15;;;;;;;1999.90;999.90;;;;;;;6.41;100.00;-18080.94;5059581;28;20197;-34
2021/04/16 02:26:01;;;;;;;1999.90;999.90;;;;;;;6.37;100.00;-18079.88;5059557;28;20201;-33
2021/04/16 02:28:48;;;;;;;1999.90;999.90;;;;;;;6.47;100.00;-18082.56;5059703;28;20205;-32
2021/04/16 02:31:35;;;;;;;1999.90;999.90;;;;;;;6.19;100.00;-18075.19;5059624;28;20302;-35
2021/04/16 02:34:23;;;;;;;1999.90;999.90;;;;;;;6.13;100.00;-18073.44;5059235;28;20488;-36
2021/04/16 02:37:14;;;;;;;1999.90;999.90;;;;;;;6.21;100.00;-18075.59;5058916;28;20196;-33
2021/04/16 02:40:05;;;;;;;1999.90;999.90;;;;;;;6.28;100.00;-18077.47;5059244;28;20704;-39
2021/04/16 02:42:52;;;;;;;1999.90;999.90;;;;;;;6.39;100.00;-18080.41;5059563;28;20201;-32
2021/04/16 02:45:38;;;;;;;1999.90;999.90;;;;;;;6.19;100.00;-18075.06;5059133;28;20200;-35
2021/04/16 02:48:25;;;;;;;1999.90;999.90;;;;;;;6.30;100.00;-18078.00;5059400;28;20204;-33
2021/04/16 02:51:11;;;;;;;1999.90;999.90;;;;;;;6.43;100.00;-18081.34;5059454;28;20250;-34
2021/04/16 02:53:57;;;;;;;1999.90;999.90;;;;;;;6.41;100.00;-18080.94;5058816;28;20335;-38
2021/04/16 02:56:44;;;;;;;1999.90;999.90;;;;;;;6.27;100.00;-18077.06;5059074;28;20200;-35
2021/04/16 02:59:31;;;;;;;1999.90;999.90;;;;;;;6.20;100.00;-18075.31;5058623;28;20374;-38
2021/04/16 03:02:19;;;;;;;1999.90;999.90;;;;;;;6.03;100.00;-18070.75;5058822;28;20443;-32
2021/04/16 03:05:08;;;;;;;1999.90;999.90;;;;;;;6.08;100.00;-18072.22;5058267;28;20282;-35
2021/04/16 03:07:55;;;;;;;1999.90;999.90;;;;;;;6.33;100.00;-18078.81;5058994;28;20255;-32
2021/04/16 03:10:42;;;;;;;1999.90;999.90;;;;;;;6.23;100.00;-18076.13;5058560;28;20192;-32
2021/04/16 03:13:30;;;;;;;1999.90;999.90;;;;;;;6.13;100.00;-18073.44;5058401;28;20379;-35
2021/04/16 03:16:18;;;;;;;1999.90;999.90;;;;;;;6.17;100.00;-18074.66;5058567;28;20200;-33
2021/04/16 03:19:06;;;;;;;1999.90;999.90;;;;;;;6.37;100.00;-18079.88;5058461;28;20243;-34
2021/04/16 03:21:53;;;;;;;1999.90;999.90;;;;;;;6.30;100.00;-18077.88;5058492;28;20574;-34
2021/04/16 03:24:39;;;;;;;1999.90;999.90;;;;;;;6.14;100.00;-18073.72;5058629;28;20208;-32
2021/04/16 03:27:27;;;;;;;1999.90;999.90;;;;;;;6.12;100.00;-18073.16;5058690;28;20223;-38
2021/04/16 03:30:18;;;;;;;1999.90;999.90;;;;;;;6.12;100.00;-18073.16;5058531;28;20192;-34
2021/04/16 03:33:04;;;;;;;1999.90;999.90;;;;;;;6.13;100.00;-18073.56;5058203;28;20201;-37
2021/04/16 03:35:50;;;;;;;1999.90;999.90;;;;;;;6.23;100.00;-18076.13;5058537;28;20197;-35
2021/04/16 03:38:38;;;;;;;1999.90;999.90;;;;;;;6.11;100.00;-18072.91;5058466;28;20286;-34
2021/04/16 03:41:24;;;;;;;1999.90;999.90;;;;;;;6.20;100.00;-18075.31;5058118;28;20590;-36
2021/04/16 03:44:09;;;;;;;1999.90;999.90;;;;;;;6.15;100.00;-18074.13;5057616;28;20197;-32
2021/04/16 03:46:56;;;;;;;1999.90;999.90;;;;;;;5.81;100.00;-18064.97;5057655;28;20306;-34
2021/04/16 03:49:43;;;;;;;1999.90;999.90;;;;;;;6.10;100.00;-18072.63;5057952;28;20213;-33
2021/04/16 03:52:32;;;;;;;1999.90;999.90;;;;;;;6.05;100.00;-18071.28;5057786;28;20606;-34
2021/04/16 03:55:20;;;;;;;1999.90;999.90;;;;;;;6.11;100.00;-18073.03;5057962;28;20316;-36
2021/04/16 03:58:07;;;;;;;1999.90;999.90;;;;;;;5.94;100.00;-18068.34;5057586;28;20692;-32
2021/04/16 04:00:53;;;;;;;1999.90;999.90;;;;;;;5.77;100.00;-18064.03;5057589;28;20626;-33
2021/04/16 04:03:40;;;;;;;1999.90;999.90;;;;;;;5.73;100.00;-18062.97;5057608;28;20259;-33
2021/04/16 04:06:27;;;;;;;1999.90;999.90;;;;;;;5.86;100.00;-18066.31;5058224;28;20195;-34
2021/04/16 04:09:13;;;;;;;1999.90;999.90;;;;;;;5.98;100.00;-18069.41;5058226;28;20191;-38
2021/04/16 04:12:00;;;;;;;1999.90;999.90;;;;;;;5.98;100.00;-18069.41;5056918;28;20315;-39
2021/04/16 04:14:48;;;;;;;1999.90;999.90;;;;;;;5.93;100.00;-18068.06;5057656;28;20741;-40
2021/04/16 04:17:36;;;;;;;1999.90;999.90;;;;;;;5.73;100.00;-18062.84;5057792;28;20251;-39
2021/04/16 04:20:27;;;;;;;1999.90;999.90;;;;;;;5.80;100.00;-18064.72;5057847;28;20232;-41
2021/04/16 04:23:13;;;;;;;1999.90;999.90;;;;;;;5.87;100.00;-18066.72;5057738;28;20298;-37
2021/04/16 04:25:59;;;;;;;1999.90;999.90;;;;;;;5.99;100.00;-18069.81;5057174;28;20201;-39
2021/04/16 04:28:48;;;;;;;1999.90;999.90;;;;;;;5.86;100.00;-18066.31;5057591;28;20192;-38
2021/04/16 04:31:35;;;;;;;1999.90;999.90;;;;;;;6.16;100.00;-18074.25;5056817;28;20201;-40
2021/04/16 04:34:27;;;;;;;1999.90;999.90;;;;;;;6.29;100.00;-18077.59;5057126;28;20282;-40
2021/04/16 04:37:19;;;;;;;1999.90;999.90;;;;;;;6.22;100.00;-18075.84;5057223;28;20200;-39
2021/04/16 04:40:07;;;;;;;1999.90;999.90;;;;;;;6.12;100.00;-18073.31;5056690;28;20294;-44
2021/04/16 04:42:53;;;;;;;1999.90;999.90;;;;;;;6.06;100.00;-18071.69;5056874;28;20603;-44
2021/04/16 04:45:41;;;;;;;1999.90;999.90;;;;;;;6.04;100.00;-18071.16;5057501;28;20699;-44
2021/04/16 04:48:27;;;;;;;1999.90;999.90;;;;;;;5.74;100.00;-18063.09;5056958;28;20216;-44
2021/04/16 04:51:12;;;;;;;1999.90;999.90;;;;;;;5.76;100.00;-18063.78;5056674;28;20228;-44
2021/04/16 04:53:59;;;;;;;1999.90;999.90;;;;;;;5.94;100.00;-18068.34;5056461;28;20203;-44
2021/04/16 04:56:45;;;;;;;1999.90;999.90;;;;;;;6.03;100.00;-18070.75;5056574;28;20584;-44
2021/04/16 04:59:33;;;;;;;1999.90;999.90;;;;;;;5.97;100.00;-18069.16;5056288;28;20248;-44
2021/04/16 05:02:25;;;;;;;1999.90;999.90;;;;;;;6.00;100.00;-18069.94;5056418;28;20318;-43
2021/04/16 05:05:13;;;;;;;1999.90;999.90;;;;;;;5.98;100.00;-18069.41;5055882;28;20298;-43
2021/04/16 05:07:59;;;;;;;1999.90;999.90;;;;;;;5.92;100.00;-18067.81;5056487;28;20200;-43
2021/04/16 05:10:47;;;;;;;1999.90;999.90;;;;;;;5.61;100.00;-18059.63;5056117;28;20366;-43
2021/04/16 05:13:33;;;;;;;1999.90;999.90;;;;;;;5.51;100.00;-18057.06;5055881;28;20232;-43
2021/04/16 05:16:20;;;;;;;1999.90;999.90;;;;;;;6.02;100.00;-18070.50;5055481;28;20636;-43
2021/04/16 05:19:08;;;;;;;1999.90;999.90;;;;;;;6.20;100.00;-18075.44;5056299;28;20212;-45
2021/04/16 05:21:56;;;;;;;1999.90;999.90;;;;;;;6.02;100.00;-18070.63;5056133;28;20429;-45
2021/04/16 05:24:42;;;;;;;1999.90;999.90;;;;;;;6.23;100.00;-18076.25;5056014;28;20197;-44
2021/04/16 05:27:29;;;;;;;1999.90;999.90;;;;;;;6.24;100.00;-18076.38;5055337;28;20204;-44
2021/04/16 05:30:19;;;;;;;1999.90;999.90;;;;;;;6.05;100.00;-18071.28;5055864;28;20661;-44
2021/04/16 05:33:11;;;;;;;1999.90;999.90;;;;;;;6.03;100.00;-18070.88;5055265;28;20200;-44
2021/04/16 05:36:02;;;;;;;1999.90;999.90;;;;;;;6.37;100.00;-18079.75;5055244;28;20591;-44
2021/04/16 05:38:49;;;;;;;1999.90;999.90;;;;;;;6.40;100.00;-18080.69;5055562;28;20225;-44
2021/04/16 05:41:35;;;;;;;1999.90;999.90;;;;;;;5.96;100.00;-18069.00;5055749;28;20346;-43
2021/04/16 05:44:21;;;;;;;1999.90;999.90;;;;;;;5.53;100.00;-18057.59;5055836;28;20258;-44
2021/04/16 05:47:06;;;;;;;1999.90;999.90;;;;;;;5.62;100.00;-18060.00;5055351;28;20354;-44
2021/04/16 05:49:56;;;;;;;1999.90;999.90;;;;;;;5.60;100.00;-18059.34;5055810;28;20530;-44
2021/04/16 05:52:43;;;;;;;1999.90;999.90;;;;;;;6.07;100.00;-18071.84;5055767;28;20213;-44
2021/04/16 05:55:31;;;;;;;1999.90;999.90;;;;;;;6.56;100.00;-18084.97;5055320;28;20246;-44
2021/04/16 05:58:17;;;;;;;1999.90;999.90;;;;;;;7.51;100.00;-18110.03;5055584;28;20691;-44
2021/04/16 06:01:03;;;;;;;1999.90;999.90;;;;;;;6.73;100.00;-18089.41;5055236;28;20197;-44
2021/04/16 06:03:52;;;;;;;1999.90;999.90;;;;;;;7.11;100.00;-18099.47;5055643;28;20203;-44
2021/04/16 06:06:41;;;;;;;1999.90;999.90;;;;;;;6.90;100.00;-18093.81;5055676;28;20233;-44
2021/04/16 06:09:32;;;;;;;1999.90;999.90;;;;;;;6.65;100.00;-18087.25;5055380;28;20217;-45
2021/04/16 06:12:27;;;;;;;1999.90;999.90;;;;;;;7.37;100.00;-18106.16;5055791;28;20387;-45
2021/04/16 06:15:18;;;;;;;1999.90;999.90;;;;;;;7.77;100.00;-18116.75;5055479;28;20330;-44
2021/04/16 06:18:04;;;;;;;1999.90;999.90;;;;;;;7.51;100.00;-18109.91;5054862;28;20209;-44
2021/04/16 06:20:54;;;;;;;1999.90;999.90;;;;;;;8.10;99.24;-18125.47;5055754;28;20488;-44
2021/04/16 06:23:43;;;;;;;1999.90;999.90;;;;;;;8.66;93.79;-18140.19;5054804;28;20197;-44
2021/04/16 06:26:30;;;;;;;1999.90;999.90;;;;;;;8.33;91.58;-18131.63;5055239;28;20300;-45
2021/04/16 06:29:16;;;;;;;1999.90;999.90;;;;;;;8.57;89.53;-18137.91;5059040;28;20206;-44
2021/04/16 06:32:02;;;;;;;1999.90;999.90;;;;;;;8.69;85.72;-18141.13;5058616;28;20309;-44
2021/04/16 06:34:50;;;;;;;1999.90;999.90;;;;;;;8.50;85.09;-18136.03;5058698;28;20195;-44
2021/04/16 06:37:41;;;;;;;1999.90;999.90;;;;;;;8.50;83.99;-18136.03;5059109;28;20199;-46
2021/04/16 06:40:31;;;;;;;1999.90;999.90;;;;;;;7.78;84.47;-18117.16;5058667;28;20196;-44
2021/04/16 06:43:23;;;;;;;1999.90;999.90;;;;;;;7.75;86.26;-18116.34;5058813;28;20279;-44
2021/04/16 06:46:15;;;;;;;1999.90;999.90;;;;;;;7.55;86.86;-18111.00;5058836;28;20245;-44
2021/04/16 06:49:04;;;;;;;1999.90;999.90;;;;;;;7.81;87.48;-18117.81;5058584;28;20198;-44
2021/04/16 06:52:01;;;;;;;1999.90;999.90;;;;;;;7.94;88.02;-18121.31;5058465;28;20202;-44
2021/04/16 06:54:57;;;;;;;1999.90;999.90;;;;;;;8.12;89.28;-18126.00;5058256;28;20343;-44
2021/04/16 06:57:47;;;;;;;1999.90;999.90;;;;;;;8.20;89.85;-18128.13;5058401;28;20537;-44
2021/04/16 07:00:43;;;;;;;1999.90;999.90;;;;;;;8.21;90.40;-18128.41;5058619;28;20202;-44
2021/04/16 07:03:35;;;;;;;1999.90;999.90;;;;;;;8.19;89.90;-18127.88;5057847;28;20221;-44
2021/04/16 07:06:27;;;;;;;1999.90;999.90;;;;;;;8.41;89.70;-18133.75;5058607;28;20282;-44
2021/04/16 07:09:18;;;;;;;1999.90;999.90;;;;;;;7.84;91.95;-18118.75;5057662;28;20224;-44
2021/04/16 07:12:14;;;;;;;1999.90;999.90;;;;;;;7.87;93.15;-18119.44;5057589;28;20240;-44
2021/04/16 07:15:04;;;;;;;1999.90;999.90;;;;;;;8.18;91.59;-18127.75;5057809;28;20207;-44
2021/04/16 07:17:53;;;;;;;1999.90;999.90;;;;;;;7.96;91.13;-18121.84;5057449;28;20202;-44
2021/04/16 07:20:40;;;;;;;1999.90;999.90;;;;;;;8.13;88.69;-18126.41;5058231;28;20452;-44
2021/04/16 07:23:26;;;;;;;1999.90;999.90;;;;;;;8.13;88.54;-18126.41;5057438;28;20197;-44
2021/04/16 07:26:27;;;;;;;1999.90;999.90;;;;;;;8.41;87.40;-18133.75;5057258;28;20206;-44
2021/04/16 07:29:37;;;;;;;1999.90;999.90;;;;;;;8.47;83.09;-18135.38;5057317;28;20622;-44
2021/04/16 07:32:40;;;;;;;1999.90;999.90;;;;;;;8.55;81.73;-18137.53;5057793;28;20203;-44
2021/04/16 07:35:31;;;;;;;1999.90;999.90;;;;;;;8.24;80.27;-18129.34;5057614;28;20610;-44
2021/04/16 07:38:27;;;;;;;1999.90;999.90;;;;;;;8.56;78.23;-18137.66;5057655;28;20715;-44
2021/04/16 07:41:18;;;;;;;1999.90;999.90;;;;;;;8.83;76.37;-18144.75;5057968;28;20206;-44
2021/04/16 07:44:05;;;;;;;1999.90;999.90;;;;;;;8.64;76.56;-18139.78;5057844;28;20205;-44
2021/04/16 07:46:53;;;;;;;1999.90;999.90;;;;;;;8.97;76.49;-18148.63;5058295;28;20207;-44
2021/04/16 07:49:55;;;;;;;1999.90;999.90;;;;;;;9.24;74.98;-18155.59;5057466;28;20196;-44
2021/04/16 07:52:43;;;;;;;1999.90;999.90;;;;;;;9.18;75.92;-18154.00;5057067;28;20216;-44
2021/04/16 07:55:32;;;;;;;1999.90;999.90;;;;;;;8.73;76.24;-18142.06;5056218;28;20223;-44
2021/04/16 07:58:21;;;;;;;1999.90;999.90;;;;;;;8.79;76.03;-18143.69;5058230;28;20605;-44
2021/04/16 08:01:15;;;;;;;1999.90;999.90;;;;;;;8.61;75.85;-18139.13;5057800;28;20494;-44
2021/04/16 08:04:08;;;;;;;1999.90;999.90;;;;;;;8.82;76.41;-18144.47;5057548;28;20196;-44
2021/04/16 08:07:16;;;;;;;1999.90;999.90;;;;;;;8.83;74.83;-18144.88;5057708;28;20197;-44
2021/04/16 08:10:14;;;;;;;1999.90;999.90;;;;;;;8.89;73.43;-18146.50;5057239;28;20250;-44
2021/04/16 08:13:13;;;;;;;1999.90;999.90;;;;;;;9.19;72.82;-18154.25;5057320;28;20251;-44
2021/04/16 08:16:11;;;;;;;1999.90;999.90;;;;;;;9.17;73.27;-18153.72;5057408;28;20295;-36
2021/04/16 08:19:12;;;;;;;1999.90;999.90;;;;;;;9.48;75.21;-18161.88;5057183;28;20479;-32
2021/04/16 08:22:04;;;;;;;1999.90;999.90;;;;;;;9.16;73.44;-18153.59;5057040;28;20366;-32
2021/04/16 08:24:55;;;;;;;1999.90;999.90;;;;;;;9.06;74.48;-18150.78;5056350;28;20196;-36
2021/04/16 08:27:51;;;;;;;1999.90;999.90;;;;;;;9.53;74.17;-18163.22;5055074;28;20665;-34
2021/04/16 08:30:52;;;;;;;1999.90;999.90;;;;;;;9.23;74.56;-18155.31;5046146;28;20224;-33
2021/04/16 08:33:45;;;;;;;1999.90;999.90;;;;;;;9.50;75.82;-18162.56;5056983;28;20215;-34
2021/04/16 08:36:41;;;;;;;1999.90;999.90;;;;;;;9.87;73.10;-18172.19;5056654;28;20201;-36
2021/04/16 08:39:34;;;;;;;1999.90;999.90;;;;;;;9.80;71.92;-18170.31;5056412;28;20220;-33
2021/04/16 08:42:24;;;;;;;1999.90;999.90;;;;;;;10.25;70.92;-18182.22;5056893;28;20200;-35
2021/04/16 08:45:17;;;;;;;1999.90;999.90;;;;;;;10.62;70.33;-18192.13;5055630;28;20205;-34
2021/04/16 08:48:16;;;;;;;1999.90;999.90;;;;;;;10.12;69.77;-18178.75;5036605;28;20201;-35
2021/04/16 08:51:12;;;;;;;1999.90;999.90;;;;;;;10.13;71.30;-18179.13;5035786;28;20387;-36
2021/04/16 08:54:06;;;;;;;1999.90;999.90;;;;;;;9.93;71.63;-18173.91;5036100;28;20555;-37
2021/04/16 08:56:57;;;;;;;1999.90;999.90;;;;;;;10.48;70.64;-18188.38;5054944;28;20307;-32
2021/04/16 08:59:52;;;;;;;1999.90;999.90;;;;;;;10.25;70.57;-18182.22;5056459;28;20212;-36
2021/04/16 09:02:52;;;;;;;1999.90;999.90;;;;;;;9.79;71.90;-18170.16;5056055;28;20201;-35
2021/04/16 09:05:53;;;;;;;1999.90;999.90;;;;;;;9.56;71.87;-18164.03;5055560;28;20618;-34
2021/04/16 09:08:41;;;;;;;1999.90;999.90;;;;;;;9.56;73.25;-18164.03;5056412;28;20617;-35
2021/04/16 09:11:53;;;;;;;1999.90;999.90;;;;;;;10.18;71.78;-18180.47;5055772;28;20522;-35
2021/04/16 09:14:56;;;;;;;1999.90;999.90;;;;;;;10.43;69.35;-18186.91;5056299;28;20196;-34
2021/04/16 09:18:14;;;;;;;1999.90;999.90;;;;;;;9.75;74.31;-18168.97;5056314;28;20295;-33
2021/04/16 09:21:31;;;;;;;1999.90;999.90;;;;;;;10.75;73.16;-18195.31;5055971;28;20222;-35
2021/04/16 09:24:44;;;;;;;1999.90;999.90;;;;;;;10.80;71.74;-18196.66;5055592;28;20200;-34
2021/04/16 09:27:36;;;;;;;1999.90;999.90;;;;;;;11.09;68.59;-18204.41;5056057;28;20602;-35
2021/04/16 09:30:32;;;;;;;1999.90;999.90;;;;;;;11.67;67.60;-18219.78;5055562;28;20557;-34
2021/04/16 09:33:21;;;;;;;1999.90;999.90;;;;;;;11.82;66.11;-18223.66;5055437;28;20218;-34
2021/04/16 09:36:09;;;;;;;1999.90;999.90;;;;;;;11.66;63.86;-18219.38;5055463;28;20200;-36
2021/04/16 09:39:12;;;;;;;1999.90;999.90;;;;;;;12.38;62.12;-18238.47;5055566;28;20196;-36
2021/04/16 09:41:59;;;;;;;1999.90;999.90;;;;;;;12.93;61.14;-18252.75;5055028;28;20590;-37
2021/04/16 09:44:55;;;;;;;1999.90;999.90;;;;;;;13.20;60.10;-18259.97;5055099;28;20205;-34
2021/04/16 09:47:53;;;;;;;1999.90;999.90;;;;;;;13.84;54.81;-18276.78;5055553;28;20201;-34
2021/04/16 09:50:43;;;;;;;1999.90;999.90;;;;;;;13.98;55.12;-18280.38;5055316;28;20248;-36
2021/04/16 09:54:29;;;;;;;1999.90;999.90;;;;;;;12.94;51.69;-18253.03;5035508;28;20393;-33
2021/04/16 09:57:42;;;;;;;1999.90;999.90;;;;;;;14.06;54.85;-18282.50;5035529;28;20233;-34
2021/04/16 10:00:55;;;;;;;1999.90;999.90;;;;;;;14.32;52.26;-18289.31;5035303;28;20700;-35
2021/04/16 10:03:48;;;;;;;1999.90;999.90;;;;;;;13.89;52.32;-18278.09;5037957;28;20201;-38
2021/04/16 10:06:47;;;;;;;1999.90;999.90;;;;;;;13.48;54.92;-18267.16;5039491;28;20193;-33
2021/04/16 10:09:35;;;;;;;1999.90;999.90;;;;;;;13.77;53.83;-18275.03;5038774;28;20436;-34
2021/04/16 10:12:27;;;;;;;1999.90;999.90;;;;;;;13.30;52.11;-18262.63;5038344;28;20253;-33
2021/04/16 10:15:25;;;;;;;1999.90;999.90;;;;;;;14.02;50.33;-18281.44;5038831;28;20225;-38
2021/04/16 10:18:28;;;;;;;1999.90;999.90;;;;;;;13.45;53.43;-18266.63;5038954;28;20493;-35
2021/04/16 10:21:25;;;;;;;1999.90;999.90;;;;;;;13.60;53.64;-18270.50;5040740;28;20359;-37
2021/04/16 12:38:41;;;;;;;1999.90;999.90;;;;;;;14.04;42.30;-18282.09;5056876;28;20200;-34
2021/04/16 12:41:30;;;;;;;1999.90;999.90;;;;;;;13.46;41.65;-18266.78;5056323;28;20228;-33
2021/04/16 12:44:30;;;;;;;1999.90;999.90;;;;;;;14.23;41.19;-18287.03;5056446;28;20207;-31
2021/04/16 12:47:23;;;;;;;1999.90;999.90;;;;;;;14.12;42.42;-18284.25;5056395;28;20200;-32
2021/04/16 12:50:17;;;;;;;1999.90;999.90;;;;;;;13.75;43.86;-18274.38;5056463;28;20200;-36
2021/04/16 12:53:03;;;;;;;1999.90;999.90;;;;;;;14.88;44.20;-18304.09;5056819;28;20275;-33
2021/04/16 12:55:55;;;;;;;1999.90;999.90;;;;;;;15.27;40.53;-18314.22;5056321;28;20290;-33
2021/04/16 12:58:43;;;;;;;1999.90;999.90;;;;;;;14.93;39.81;-18305.28;5056220;28;20224;-36
2021/04/16 13:01:31;;;;;;;1999.90;999.90;;;;;;;15.44;40.58;-18318.75;5056381;28;20231;-31
2021/04/16 13:04:23;;;;;;;1999.90;999.90;;;;;;;14.78;41.37;-18301.56;5056789;28;20204;-36
2021/04/16 13:07:13;;;;;;;1999.90;999.90;;;;;;;14.38;40.48;-18290.91;5056011;28;20649;-36
2021/04/16 13:10:01;;;;;;;1999.90;999.90;;;;;;;15.19;40.88;-18312.22;5056749;28;20243;-35
2021/04/16 13:12:48;;;;;;;1999.90;999.90;;;;;;;16.07;40.95;-18335.38;5054615;28;20263;-32
2021/04/16 13:15:38;;;;;;;1999.90;999.90;;;;;;;16.31;39.29;-18341.50;5055978;28;20204;-33
2021/04/16 13:18:29;;;;;;;1999.90;999.90;;;;;;;17.39;37.43;-18369.97;5055818;28;20197;-36
2021/04/16 13:21:23;;;;;;;1999.90;999.90;;;;;;;16.63;38.78;-18349.88;5055755;28;20346;-33
2021/04/16 13:24:11;;;;;;;1999.90;999.90;;;;;;;17.07;37.75;-18361.59;5055966;28;20266;-34
2021/04/16 13:27:02;;;;;;;1999.90;999.90;;;;;;;15.26;39.14;-18314.09;5056127;28;20357;-34
2021/04/16 13:29:48;;;;;;;1999.90;999.90;;;;;;;14.33;41.06;-18289.56;5055263;28;20491;-37
2021/04/16 13:32:41;;;;;;;1999.90;999.90;;;;;;;14.89;40.48;-18304.22;5055697;28;20270;-31
2021/04/16 13:35:34;;;;;;;1999.90;999.90;;;;;;;15.25;39.12;-18313.69;5035891;28;20726;-33
2021/04/16 13:38:25;;;;;;;1999.90;999.90;;;;;;;16.34;38.24;-18342.31;5036650;28;20205;-32
2021/04/16 13:41:11;;;;;;;1999.90;999.90;;;;;;;16.82;38.13;-18355.06;5055263;28;20591;-34
2021/04/16 13:43:58;;;;;;;1999.90;999.90;;;;;;;16.32;37.18;-18341.91;5048544;28;20205;-37
2021/04/16 13:46:48;;;;;;;1999.90;999.90;;;;;;;15.93;36.92;-18331.66;5045295;28;20205;-36
2021/04/16 13:49:37;;;;;;;1999.90;999.90;;;;;;;17.06;37.09;-18361.31;5054740;28;20199;-36
2021/04/16 13:52:24;;;;;;;1999.90;999.90;;;;;;;17.62;34.60;-18375.94;5055330;28;20279;-34
2021/04/16 13:55:18;;;;;;;1999.90;999.90;;;;;;;17.61;34.96;-18375.53;5056061;28;20192;-33
2021/04/16 13:58:05;;;;;;;1999.90;999.90;;;;;;;16.75;35.58;-18353.22;5054626;28;20479;-35
2021/04/16 14:00:51;;;;;;;1999.90;999.90;;;;;;;15.83;36.59;-18329.13;5055478;28;20228;-34
2021/04/16 14:03:40;;;;;;;1999.90;999.90;;;;;;;16.45;36.72;-18345.22;5055796;28;20210;-38
2021/04/16 14:06:34;;;;;;;1999.90;999.90;;;;;;;16.16;37.42;-18337.78;5056269;28;20198;-38
2021/04/16 14:09:26;;;;;;;1999.90;999.90;;;;;;;17.62;35.29;-18375.94;5055636;28;20237;-38
2021/04/16 14:12:13;;;;;;;1999.90;999.90;;;;;;;16.61;35.20;-18349.47;5055416;28;20297;-33
2021/04/16 14:15:02;;;;;;;1999.90;999.90;;;;;;;16.71;35.62;-18352.16;5055195;28;20617;-32
2021/04/16 14:17:52;;;;;;;1999.90;999.90;;;;;;;17.77;35.99;-18379.81;5055353;28;20200;-33
2021/04/16 14:20:40;;;;;;;1999.90;999.90;;;;;;;17.09;35.39;-18362.13;5055660;28;20232;-35
2021/04/16 14:23:33;;;;;;;1999.90;999.90;;;;;;;15.08;37.81;-18309.41;5055021;28;20315;-36
2021/04/16 14:26:26;;;;;;;1999.90;999.90;;;;;;;14.32;40.13;-18289.31;5055588;28;20205;-32
2021/04/16 14:29:13;;;;;;;1999.90;999.90;;;;;;;14.21;40.08;-18286.50;5053503;28;20209;-33
2021/04/16 14:32:01;;;;;;;1999.90;999.90;;;;;;;15.08;39.71;-18309.28;5055108;28;20267;-36
2021/04/16 14:34:50;;;;;;;1999.90;999.90;;;;;;;14.41;38.18;-18291.69;5035780;28;20228;-33
2021/04/16 14:37:37;;;;;;;1999.90;999.90;;;;;;;14.88;38.12;-18303.97;5035287;28;20259;-33
2021/04/16 14:40:25;;;;;;;1999.90;999.90;;;;;;;15.16;40.00;-18311.56;5041254;28;20206;-37
2021/04/16 14:43:12;;;;;;;1999.90;999.90;;;;;;;15.14;40.25;-18311.03;5054885;28;20355;-36